Aeroporto :
LOGIN :

Iscrizione | Disclaimer

   EN    FR    IT 

 










Sommario :    VFR   VFR Marginale   IFR   IFR Intensivo   IFR Molto Intensivo
Visibilità : 
Base nubi : 
>= 8 km
>= 3000ft
5 / 8 km
1000 / 3000 ft
1500m / 5 km
500 / 1000 ft
800 / 1500m
200 / 500 ft
< 800m
< 200 ft
Simboli :   Temporali  Nebbia  Neve Forte  Precipitazioni Forti  Vento > 20 kt
SIGMETs :   Varie  Temporali  Ghiacco  Turbolenza  Onda orograficha  Ceneri Vulcaniche






- Altitudine del aeroporto : 20 ft


EBFN - Koksijde

ULTIMO METAR :
  • 121925Z AUTO 06005KT 9999 NCD 16/10 Q1027 BLU

METARs OBSOLETI :
  • 121855Z AUTO 04006KT 9999 NCD 17/09 Q1027 BLU
  • 121825Z AUTO 04009KT 9999 NCD 17/09 Q1027 BLU
  • 121755Z AUTO 04010KT 9999 NCD 18/09 Q1027 BLU
  • 121725Z AUTO 03011KT 9999 NCD 18/09 Q1027 BLU
  • 121655Z AUTO 02011KT 9999 NCD 18/11 Q1027 BLU

TAF TAF EBFN
Valido dal 12 a 19 ore il 13 a 07 ore UTC


121541Z 1219/1307 01010KT 9999 FEW050 BKN250
BECMG 1221/1223 08005KT BKN250
PROB40
TEMPO 1303/1307 VRB03KT 6000



MetMap, La meteo Aeronautica in un colpo d'occhio ! - Copyright ORBIFLY Dicembre 2007 - Disclaimer

ORBIFLY MET'MAP TEAM :

Programmazione e sviluppo : Alexandra Zaïnal
Concezione : Baudouin d'Aumeries
Aiuto per la programmazione : Marc-Olivier Méhu
Supporto tecnico e logistico : Manuel Goepfert
Aiuto per la traduzione : Arnaldo La Scala

Contatto : metmap@orbifly.com




FONTI E CREDITI :

   NOAA